createdAt,value
2022-10-11T00:00:11.363Z,2.53
2022-10-11T00:04:16.576Z,2.88
2022-10-11T00:06:21.441Z,3.00
2022-10-11T00:08:23.850Z,2.80
2022-10-11T00:10:26.447Z,2.60
2022-10-11T00:12:28.762Z,2.72
2022-10-11T00:14:31.139Z,3.13
2022-10-11T00:16:33.835Z,2.60
2022-10-11T00:18:36.222Z,3.15
2022-10-11T00:20:38.469Z,3.00
2022-10-11T00:22:44.078Z,2.90
2022-10-11T00:24:46.389Z,2.65
2022-10-11T00:26:48.673Z,2.70
2022-10-11T00:28:53.079Z,2.95
2022-10-11T00:30:55.569Z,2.30
2022-10-11T00:32:58.102Z,2.50
2022-10-11T00:35:04.795Z,3.42
2022-10-11T00:37:07.066Z,2.72
2022-10-11T00:39:14.322Z,2.47
2022-10-11T00:41:17.591Z,2.65
2022-10-11T00:43:22.670Z,2.63
2022-10-11T00:45:54.977Z,2.63
2022-10-11T00:48:02.618Z,2.65
2022-10-11T00:50:09.376Z,3.25
2022-10-11T00:52:18.015Z,2.58
2022-10-11T00:54:27.341Z,2.40
2022-10-11T00:56:33.301Z,2.35
2022-10-11T00:58:37.527Z,2.42
2022-10-11T01:00:39.858Z,2.65
2022-10-11T01:02:43.862Z,3.13
2022-10-11T01:04:46.429Z,2.95
2022-10-11T01:06:50.208Z,2.72
2022-10-11T01:08:54.347Z,2.85
2022-10-11T01:10:59.634Z,2.53
2022-10-11T01:13:09.063Z,2.28
2022-10-11T01:15:21.213Z,3.00
2022-10-11T01:17:34.354Z,2.50
2022-10-11T01:19:52.680Z,2.53
2022-10-11T01:22:06.583Z,2.50
2022-10-11T01:24:25.701Z,2.53
2022-10-11T01:26:57.570Z,3.00
2022-10-11T01:29:09.814Z,2.50
2022-10-11T01:31:21.720Z,2.92
2022-10-11T01:33:30.030Z,2.47
2022-10-11T01:35:39.276Z,2.45
2022-10-11T01:37:46.316Z,2.80
2022-10-11T01:39:52.636Z,2.70
2022-10-11T01:41:57.791Z,2.30
2022-10-11T01:44:01.906Z,2.50
2022-10-11T01:46:05.613Z,2.80
2022-10-11T01:48:13.439Z,2.67
2022-10-11T01:50:35.698Z,2.72
2022-10-11T01:52:44.912Z,2.47
2022-10-11T01:55:10.565Z,2.88
2022-10-11T01:57:43.544Z,2.28
2022-10-11T01:59:57.412Z,2.83
2022-10-11T02:02:09.785Z,3.03
2022-10-11T02:04:19.172Z,2.55
2022-10-11T02:06:29.018Z,2.30
2022-10-11T02:08:37.174Z,2.92
2022-10-11T02:10:44.854Z,2.50
2022-10-11T02:12:54.033Z,2.67
2022-10-11T02:14:58.179Z,3.40
2022-10-11T02:17:04.622Z,2.83
2022-10-11T02:19:08.205Z,2.97
2022-10-11T02:21:16.515Z,2.72
2022-10-11T02:23:28.005Z,2.75
2022-10-11T02:25:35.433Z,2.38
2022-10-11T02:27:40.683Z,2.80
2022-10-11T02:29:46.484Z,2.53
2022-10-11T02:31:49.999Z,2.65
2022-10-11T02:34:00.125Z,3.40
2022-10-11T02:36:10.261Z,2.65
2022-10-11T02:38:21.400Z,2.53
2022-10-11T02:40:29.147Z,3.20
2022-10-11T02:42:37.237Z,2.63
2022-10-11T02:44:44.202Z,2.35
2022-10-11T02:46:49.038Z,2.40
2022-10-11T02:48:52.127Z,3.30
2022-10-11T02:50:56.233Z,2.10
2022-10-11T02:52:58.462Z,2.28
2022-10-11T02:55:04.137Z,2.40
2022-10-11T02:57:06.572Z,2.50
2022-10-11T02:59:08.856Z,2.38
2022-10-11T03:01:11.270Z,2.78
2022-10-11T03:03:13.582Z,2.65
2022-10-11T03:05:16.854Z,3.20
2022-10-11T03:07:19.184Z,2.50
2022-10-11T03:09:21.568Z,2.85
2022-10-11T03:11:26.608Z,3.00
2022-10-11T03:13:28.879Z,2.55
2022-10-11T03:15:31.130Z,2.25
2022-10-11T03:17:37.374Z,3.03
2022-10-11T03:19:39.804Z,2.67
2022-10-11T03:21:42.014Z,2.92
2022-10-11T03:23:47.429Z,2.63
2022-10-11T03:25:49.906Z,2.40
2022-10-11T03:27:54.830Z,2.78
2022-10-11T03:29:57.956Z,2.38
2022-10-11T03:32:00.552Z,2.17
2022-10-11T03:34:05.434Z,2.50
2022-10-11T03:36:09.181Z,2.88
2022-10-11T03:38:13.147Z,2.78
2022-10-11T03:40:15.693Z,2.78
2022-10-11T03:42:17.970Z,2.83
2022-10-11T03:44:22.891Z,2.88
2022-10-11T03:46:25.332Z,2.65
2022-10-11T03:48:27.577Z,2.40
2022-10-11T03:50:30.264Z,2.40
2022-10-11T03:52:32.676Z,2.20
2022-10-11T03:54:34.932Z,2.83
2022-10-11T03:56:40.120Z,2.92
2022-10-11T03:58:42.582Z,2.53
2022-10-11T04:00:47.510Z,2.80
2022-10-11T04:02:50.572Z,2.75
2022-10-11T04:04:52.824Z,2.75
2022-10-11T04:06:55.943Z,3.15
2022-10-11T04:08:58.519Z,2.15
2022-10-11T04:11:00.857Z,2.35
2022-10-11T04:13:03.110Z,3.58
2022-10-11T04:15:07.088Z,2.90
2022-10-11T04:17:12.034Z,3.08
2022-10-11T04:19:14.589Z,2.50
2022-10-11T04:21:18.026Z,2.90
2022-10-11T04:23:20.268Z,2.77
2022-10-11T04:25:22.560Z,2.80
2022-10-11T04:27:26.887Z,3.00
2022-10-11T04:31:35.379Z,2.70
2022-10-11T04:33:40.322Z,2.53
2022-10-11T04:35:42.716Z,2.38
2022-10-11T04:37:45.191Z,2.60
2022-10-11T04:39:47.489Z,2.30
2022-10-11T04:41:49.955Z,2.33
2022-10-11T04:43:52.262Z,2.55
2022-10-11T04:45:55.586Z,2.53
2022-10-11T04:47:58.234Z,2.53
2022-10-11T04:50:03.148Z,2.97
2022-10-11T04:52:08.069Z,2.60
2022-10-11T04:54:12.919Z,2.65
2022-10-11T04:56:18.243Z,2.50
2022-10-11T04:58:20.546Z,2.42
2022-10-11T05:00:22.983Z,2.60
2022-10-11T05:02:28.261Z,2.65
2022-10-11T05:04:30.713Z,2.20
2022-10-11T05:06:35.620Z,2.30
2022-10-11T05:08:40.316Z,3.30
2022-10-11T05:10:45.974Z,2.58
2022-10-11T05:12:48.298Z,2.70
2022-10-11T05:14:50.597Z,2.42
2022-10-11T05:16:52.904Z,2.90
2022-10-11T05:18:55.281Z,2.58
2022-10-11T05:21:01.094Z,2.72
2022-10-11T05:23:06.061Z,2.40
2022-10-11T05:25:11.624Z,2.60
2022-10-11T05:27:15.835Z,2.90
2022-10-11T05:29:18.062Z,3.00
2022-10-11T05:31:20.433Z,2.45
2022-10-11T05:33:22.886Z,2.70
2022-10-11T05:35:25.214Z,2.70
2022-10-11T05:37:27.634Z,2.63
2022-10-11T05:39:32.583Z,2.85
2022-10-11T05:41:34.997Z,2.80
2022-10-11T05:43:37.530Z,2.60
2022-10-11T05:45:41.491Z,3.08
2022-10-11T05:47:43.773Z,3.13
2022-10-11T05:49:45.980Z,2.53
2022-10-11T05:51:48.120Z,2.58
2022-10-11T05:53:50.588Z,3.92
2022-10-11T05:55:55.772Z,3.00
2022-10-11T05:57:58.172Z,2.60
2022-10-11T06:00:03.890Z,2.70
2022-10-11T06:02:06.393Z,2.97
2022-10-11T06:04:08.770Z,2.67
2022-10-11T06:06:11.168Z,2.45
2022-10-11T06:08:13.998Z,2.72
2022-10-11T06:10:18.067Z,2.47
2022-10-11T06:12:22.938Z,2.60
2022-10-11T06:14:26.155Z,2.50
2022-10-11T06:16:28.389Z,3.15
2022-10-11T06:18:31.553Z,2.72
2022-10-11T06:20:33.860Z,2.50
2022-10-11T06:22:36.434Z,2.95
2022-10-11T06:24:38.794Z,2.47
2022-10-11T06:26:41.082Z,2.75
2022-10-11T06:28:46.436Z,3.28
2022-10-11T06:30:48.700Z,2.90
2022-10-11T06:32:51.013Z,2.92
2022-10-11T06:34:53.234Z,2.92
2022-10-11T06:36:55.760Z,3.00
2022-10-11T06:39:00.993Z,2.50
2022-10-11T06:41:10.437Z,2.75
2022-10-11T06:43:13.209Z,2.70
2022-10-11T06:45:18.724Z,2.60
2022-10-11T06:47:21.005Z,2.45
2022-10-11T06:49:23.707Z,2.38
2022-10-11T06:51:26.152Z,2.58
2022-10-11T06:53:28.819Z,2.53
2022-10-11T06:55:32.639Z,2.92
2022-10-11T06:57:34.887Z,3.10
2022-10-11T06:59:37.167Z,2.78
2022-10-11T07:01:42.409Z,2.30
2022-10-11T07:03:46.014Z,2.83
2022-10-11T07:05:48.364Z,3.50
2022-10-11T07:07:50.605Z,2.63
2022-10-11T07:09:52.823Z,2.53
2022-10-11T07:11:56.792Z,2.35
2022-10-11T07:14:01.111Z,2.53
2022-10-11T07:18:08.944Z,4.25
2022-10-11T07:20:12.411Z,3.15
2022-10-11T07:22:14.666Z,2.50
2022-10-11T07:24:16.965Z,2.80
2022-10-11T07:26:20.069Z,3.00
2022-10-11T07:28:22.768Z,2.58
2022-10-11T07:30:25.121Z,2.65
2022-10-11T07:32:27.631Z,3.00
2022-10-11T07:34:32.511Z,2.70
2022-10-11T07:36:35.263Z,3.03
2022-10-11T07:38:40.409Z,3.03
2022-10-11T07:40:47.802Z,2.47
2022-10-11T07:42:50.124Z,2.95
2022-10-11T07:44:52.486Z,3.53
2022-10-11T07:46:54.824Z,2.60
2022-10-11T07:48:57.226Z,2.90
2022-10-11T07:51:07.731Z,2.67
2022-10-11T07:53:10.186Z,2.58
2022-10-11T07:55:12.367Z,2.40
2022-10-11T07:57:15.552Z,3.42
2022-10-11T07:59:17.833Z,2.55
2022-10-11T08:01:20.682Z,2.88
2022-10-11T08:03:23.072Z,2.40
2022-10-11T08:05:25.290Z,2.75
2022-10-11T08:07:30.629Z,2.50
2022-10-11T08:09:33.290Z,2.60
2022-10-11T08:11:37.123Z,2.58
2022-10-11T08:13:40.195Z,2.60
2022-10-11T08:15:42.458Z,2.78
2022-10-11T08:17:44.808Z,3.00
2022-10-11T08:19:47.259Z,2.88
2022-10-11T08:21:49.580Z,3.10
2022-10-11T08:23:54.499Z,2.63
2022-10-11T08:25:58.360Z,2.70
2022-10-11T08:28:00.600Z,2.67
2022-10-11T08:30:03.661Z,3.40
2022-10-11T08:32:06.169Z,2.38
2022-10-11T08:34:08.524Z,2.72
2022-10-11T08:36:12.989Z,2.53
2022-10-11T08:38:16.626Z,2.42
2022-10-11T08:40:24.359Z,2.50
2022-10-11T08:42:35.604Z,2.58
2022-10-11T08:45:10.043Z,2.95
2022-10-11T08:47:19.536Z,2.58
2022-10-11T08:49:26.763Z,2.88
2022-10-11T08:51:32.253Z,3.22
2022-10-11T08:53:43.257Z,2.88
2022-10-11T08:55:52.276Z,2.78
2022-10-11T08:57:56.682Z,3.63
2022-10-11T09:00:01.345Z,2.65
2022-10-11T09:02:16.888Z,2.70
2022-10-11T09:04:19.310Z,3.10
2022-10-11T09:06:32.760Z,3.05
2022-10-11T09:08:47.034Z,2.95
2022-10-11T09:10:58.975Z,2.78
2022-10-11T09:13:15.330Z,2.83
2022-10-11T09:15:27.062Z,2.42
2022-10-11T09:17:44.418Z,2.63
2022-10-11T09:20:12.461Z,2.50
2022-10-11T09:22:22.732Z,2.50
2022-10-11T09:24:37.155Z,2.25
2022-10-11T09:26:51.859Z,2.53
2022-10-11T09:31:04.198Z,2.40
2022-10-11T09:33:13.597Z,2.70
2022-10-11T09:35:18.605Z,2.63
2022-10-11T09:37:27.031Z,2.38
2022-10-11T09:39:32.386Z,3.10
2022-10-11T09:41:41.903Z,3.63
2022-10-11T09:43:51.104Z,2.67
2022-10-11T09:45:53.393Z,3.47
2022-10-11T09:48:01.775Z,2.67
2022-10-11T09:50:12.992Z,2.90
2022-10-11T09:52:17.024Z,2.63
2022-10-11T09:54:27.557Z,3.20
2022-10-11T09:56:40.130Z,2.40
2022-10-11T09:58:42.627Z,2.35
2022-10-11T10:00:57.565Z,2.50
2022-10-11T10:03:02.723Z,3.33
2022-10-11T10:05:21.149Z,3.05
2022-10-11T10:07:23.996Z,2.65
2022-10-11T10:09:30.246Z,3.33
2022-10-11T10:11:37.223Z,3.28
2022-10-11T10:13:49.970Z,2.70
2022-10-11T10:16:01.319Z,2.88
2022-10-11T10:18:06.116Z,2.90
2022-10-11T10:20:21.206Z,2.67
2022-10-11T10:22:28.025Z,2.40
2022-10-11T10:24:40.027Z,2.22
2022-10-11T10:26:42.245Z,2.58
2022-10-11T10:29:00.180Z,2.42
2022-10-11T10:31:05.276Z,2.53
2022-10-11T10:33:11.674Z,2.75
2022-10-11T10:35:26.073Z,2.35
2022-10-11T10:37:32.343Z,2.45
2022-10-11T10:39:40.967Z,2.80
2022-10-11T10:41:43.283Z,2.28
2022-10-11T10:43:52.363Z,2.92
2022-10-11T10:46:25.623Z,2.50
2022-10-11T10:49:01.975Z,2.55
2022-10-11T10:51:09.672Z,2.40
2022-10-11T10:53:24.073Z,2.55
2022-10-11T10:55:36.157Z,2.83
2022-10-11T10:57:47.566Z,2.60
2022-10-11T11:00:03.159Z,2.50
2022-10-11T11:02:39.268Z,2.22
2022-10-11T11:04:43.914Z,2.45
2022-10-11T11:06:51.127Z,2.78
2022-10-11T11:09:14.633Z,2.58
2022-10-11T11:11:45.569Z,2.45
2022-10-11T11:13:56.214Z,2.47
2022-10-11T11:16:11.938Z,2.40
2022-10-11T11:18:28.521Z,3.40
2022-10-11T11:20:52.062Z,2.90
2022-10-11T11:23:02.495Z,2.25
2022-10-11T11:25:14.769Z,1.90
2022-10-11T11:27:31.090Z,2.47
2022-10-11T11:29:49.831Z,2.50
2022-10-11T11:32:15.675Z,2.22
2022-10-11T11:34:26.139Z,2.38
2022-10-11T11:36:36.746Z,2.50
2022-10-11T11:38:44.827Z,2.38
2022-10-11T11:40:52.583Z,2.03
2022-10-11T11:43:00.058Z,2.15
2022-10-11T11:45:12.244Z,2.50
2022-10-11T11:47:21.406Z,2.45
2022-10-11T11:49:34.038Z,2.17
2022-10-11T11:51:41.172Z,2.53
2022-10-11T11:53:52.556Z,2.42
2022-10-11T11:56:00.055Z,2.30
2022-10-11T11:58:13.180Z,2.38
2022-10-11T12:00:19.113Z,2.30
2022-10-11T12:02:39.610Z,2.45
2022-10-11T12:04:46.509Z,2.35
2022-10-11T12:07:15.469Z,2.17
2022-10-11T12:09:22.483Z,2.75
2022-10-11T12:11:31.701Z,2.70
2022-10-11T12:13:42.531Z,2.65
2022-10-11T12:16:02.018Z,2.60
2022-10-11T12:18:14.857Z,2.47
2022-10-11T12:20:28.154Z,2.17
2022-10-11T12:22:40.609Z,2.20
2022-10-11T12:24:55.318Z,2.17
2022-10-11T12:29:25.888Z,2.40
2022-10-11T12:31:32.511Z,2.00
2022-10-11T12:36:04.175Z,2.47
2022-10-11T12:38:19.535Z,2.40
2022-10-11T12:40:36.578Z,2.30
2022-10-11T12:42:38.940Z,2.15
2022-10-11T12:44:47.185Z,2.50
2022-10-11T12:47:18.298Z,2.50
2022-10-11T12:49:51.252Z,2.50
2022-10-11T12:52:04.202Z,2.65
2022-10-11T12:54:49.338Z,2.42
2022-10-11T12:57:13.033Z,2.65
2022-10-11T12:59:21.849Z,2.20
2022-10-11T13:01:27.155Z,2.00
2022-10-11T13:03:33.557Z,2.53
2022-10-11T13:05:45.175Z,2.53
2022-10-11T13:07:52.039Z,1.90
2022-10-11T13:09:55.313Z,2.47
2022-10-11T13:12:02.866Z,2.30
2022-10-11T13:14:11.340Z,2.50
2022-10-11T13:16:16.967Z,2.50
2022-10-11T13:18:22.917Z,2.03
2022-10-11T13:20:28.077Z,2.25
2022-10-11T13:22:34.979Z,2.17
2022-10-11T13:24:42.631Z,2.75
2022-10-11T13:26:47.024Z,2.05
2022-10-11T13:28:49.464Z,2.90
2022-10-11T13:30:56.256Z,2.17
2022-10-11T13:32:59.878Z,2.20
2022-10-11T13:35:04.762Z,2.15
2022-10-11T13:37:15.320Z,2.38
2022-10-11T13:39:30.998Z,2.55
2022-10-11T13:41:36.496Z,2.50
2022-10-11T13:43:40.749Z,2.45
2022-10-11T13:45:43.173Z,2.50
2022-10-11T13:47:47.275Z,2.22
2022-10-11T13:50:01.990Z,2.80
2022-10-11T13:52:07.186Z,2.40
2022-10-11T13:54:13.766Z,2.10
2022-10-11T13:56:19.733Z,1.90
2022-10-11T13:58:28.385Z,2.05
2022-10-11T14:00:33.796Z,2.22
2022-10-11T14:02:36.446Z,2.17
2022-10-11T14:04:40.034Z,2.35
2022-10-11T14:06:46.386Z,1.90
2022-10-11T14:08:51.661Z,2.70
2022-10-11T14:11:00.288Z,2.78
2022-10-11T14:13:07.953Z,2.40
2022-10-11T14:15:31.123Z,2.10
2022-10-11T14:17:42.665Z,2.65
2022-10-11T14:19:47.505Z,2.10
2022-10-11T14:21:52.921Z,2.50
2022-10-11T14:23:57.241Z,2.33
2022-10-11T14:25:59.453Z,2.58
2022-10-11T14:28:01.923Z,2.35
2022-10-11T14:32:34.640Z,2.33
2022-10-11T14:34:37.451Z,2.00
2022-10-11T14:36:39.796Z,1.95
2022-10-11T14:38:42.152Z,2.03
2022-10-11T14:40:44.296Z,2.25
2022-10-11T14:42:49.883Z,2.40
2022-10-11T14:44:52.315Z,2.03
2022-10-11T14:46:55.174Z,2.15
2022-10-11T14:49:00.111Z,2.00
2022-10-11T14:51:14.307Z,1.98
2022-10-11T14:53:16.670Z,2.40
2022-10-11T14:55:18.912Z,2.22
2022-10-11T14:57:21.410Z,2.15
2022-10-11T14:59:34.207Z,2.03
2022-10-11T15:01:36.564Z,2.40
2022-10-11T15:03:38.841Z,2.78
2022-10-11T15:05:43.833Z,2.15
2022-10-11T15:07:46.170Z,2.15
2022-10-11T15:09:48.496Z,1.95
2022-10-11T15:11:54.232Z,2.22
2022-10-11T15:13:56.430Z,2.15
2022-10-11T15:15:58.647Z,2.35
2022-10-11T15:18:02.007Z,2.17
2022-10-11T15:20:07.722Z,2.20
2022-10-11T15:22:12.988Z,2.13
2022-10-11T15:24:15.551Z,2.03
2022-10-11T15:26:20.675Z,2.10
2022-10-11T15:28:29.386Z,2.10
2022-10-11T15:30:41.146Z,2.20
2022-10-11T15:32:45.679Z,2.08
2022-10-11T15:34:48.306Z,2.38
2022-10-11T15:36:51.303Z,2.70
2022-10-11T15:38:59.127Z,2.22
2022-10-11T15:41:04.197Z,2.47
2022-10-11T15:43:06.552Z,2.40
2022-10-11T15:45:09.758Z,2.20
2022-10-11T15:47:12.497Z,2.37
2022-10-11T15:49:19.710Z,2.03
2022-10-11T15:51:22.018Z,2.25
2022-10-11T15:53:30.102Z,2.35
2022-10-11T15:55:40.479Z,2.08
2022-10-11T15:57:45.812Z,2.42
2022-10-11T15:59:48.109Z,2.30
2022-10-11T16:01:50.412Z,2.42
2022-10-11T16:03:55.117Z,2.22
2022-10-11T16:06:04.914Z,2.10
2022-10-11T16:08:08.364Z,3.13
2022-10-11T16:10:10.935Z,2.33
2022-10-11T16:12:15.975Z,2.35
2022-10-11T16:14:20.347Z,2.60
2022-10-11T16:16:22.615Z,2.30
2022-10-11T16:18:24.882Z,2.40
2022-10-11T16:20:27.984Z,2.40
2022-10-11T16:22:36.816Z,2.00
2022-10-11T16:24:39.498Z,2.13
2022-10-11T16:26:41.904Z,2.22
2022-10-11T16:28:48.033Z,2.22
2022-10-11T16:30:50.725Z,2.03
2022-10-11T16:32:53.214Z,2.60
2022-10-11T16:34:55.431Z,2.22
2022-10-11T16:36:57.761Z,2.03
2022-10-11T16:39:02.312Z,2.50
2022-10-11T16:41:06.138Z,2.38
2022-10-11T16:43:08.471Z,2.38
2022-10-11T16:45:15.264Z,2.33
2022-10-11T16:47:19.946Z,3.08
2022-10-11T16:49:27.271Z,2.20
2022-10-11T16:51:29.571Z,2.40
2022-10-11T16:53:33.711Z,2.47
2022-10-11T16:55:39.174Z,2.35
2022-10-11T16:57:44.458Z,2.70
2022-10-11T16:59:47.167Z,3.10
2022-10-11T17:01:52.063Z,2.60
2022-10-11T17:03:55.819Z,3.15
2022-10-11T17:05:58.121Z,2.30
2022-10-11T17:08:01.852Z,2.58
2022-10-11T17:10:05.215Z,3.30
2022-10-11T17:12:08.648Z,3.15
2022-10-11T17:14:12.549Z,2.65
2022-10-11T17:16:16.081Z,2.45
2022-10-11T17:18:21.053Z,3.17
2022-10-11T17:20:23.446Z,2.63
2022-10-11T17:24:29.647Z,3.50
2022-10-11T17:26:32.837Z,3.05
2022-10-11T17:28:36.796Z,3.22
2022-10-11T17:30:41.828Z,2.90
2022-10-11T17:32:44.108Z,2.75
2022-10-11T17:34:49.232Z,2.78
2022-10-11T17:36:54.304Z,2.47
2022-10-11T17:38:56.886Z,2.83
2022-10-11T17:41:00.588Z,2.75
2022-10-11T17:43:03.151Z,2.67
2022-10-11T17:45:07.910Z,3.08
2022-10-11T17:47:10.249Z,3.13
2022-10-11T17:49:13.205Z,2.40
2022-10-11T17:51:19.714Z,2.97
2022-10-11T17:53:22.128Z,2.95
2022-10-11T17:55:24.600Z,2.78
2022-10-11T17:57:26.912Z,2.63
2022-10-11T17:59:30.681Z,2.88
2022-10-11T18:01:33.434Z,2.20
2022-10-11T18:03:36.441Z,2.58
2022-10-11T18:05:39.719Z,2.50
2022-10-11T18:07:44.639Z,2.35
2022-10-11T18:09:46.802Z,2.80
2022-10-11T18:11:49.715Z,2.70
2022-10-11T18:13:53.134Z,2.30
2022-10-11T18:15:55.483Z,3.33
2022-10-11T18:17:59.498Z,2.60
2022-10-11T18:20:01.844Z,2.83
2022-10-11T18:22:06.976Z,3.00
2022-10-11T18:24:16.071Z,2.88
2022-10-11T18:26:20.450Z,3.40
2022-10-11T18:28:22.765Z,2.85
2022-10-11T18:30:26.008Z,3.10
2022-10-11T18:32:28.467Z,3.08
2022-10-11T18:34:30.814Z,2.80
2022-10-11T18:36:33.658Z,3.55
2022-10-11T18:38:38.406Z,3.47
2022-10-11T18:40:47.061Z,3.85
2022-10-11T18:42:56.964Z,3.30
2022-10-11T18:44:59.269Z,4.80
2022-10-11T18:47:01.496Z,3.90
2022-10-11T18:49:04.231Z,3.72
2022-10-11T18:51:09.849Z,3.90
2022-10-11T18:53:12.381Z,3.97
2022-10-11T18:55:14.876Z,4.53
2022-10-11T18:57:19.966Z,5.00
2022-10-11T18:59:22.496Z,4.90
2022-10-11T19:01:27.498Z,5.25
2022-10-11T19:03:34.960Z,4.93
2022-10-11T19:05:39.371Z,5.65
2022-10-11T19:07:43.001Z,8.20
2022-10-11T19:11:56.704Z,6.70
2022-10-11T19:14:06.392Z,4.88
2022-10-11T19:16:10.264Z,7.30
2022-10-11T19:18:20.572Z,7.07
2022-10-11T19:20:23.140Z,6.90
2022-10-11T19:22:25.644Z,5.32
2022-10-11T19:24:31.201Z,5.47
2022-10-11T19:26:36.242Z,7.28
2022-10-11T19:28:38.572Z,7.10
2022-10-11T19:30:45.297Z,7.55
2022-10-11T19:32:50.511Z,7.10
2022-10-11T19:34:53.284Z,6.85
2022-10-11T19:36:56.571Z,8.73
2022-10-11T19:38:59.792Z,8.48
2022-10-11T19:41:02.711Z,9.00
2022-10-11T19:43:05.626Z,8.57
2022-10-11T19:45:09.147Z,10.43
2022-10-11T19:47:17.137Z,9.18
2022-10-11T19:49:21.645Z,7.85
2022-10-11T19:51:25.604Z,7.30
2022-10-11T19:53:27.811Z,7.97
2022-10-11T19:55:30.353Z,7.97
2022-10-11T19:57:33.025Z,10.35
2022-10-11T19:59:35.535Z,10.80
2022-10-11T20:01:38.237Z,11.00
2022-10-11T20:03:44.433Z,9.70
2022-10-11T20:05:46.645Z,9.23
2022-10-11T20:07:49.087Z,9.40
2022-10-11T20:09:54.698Z,7.93
2022-10-11T20:12:04.867Z,7.72
2022-10-11T20:14:07.174Z,8.88
2022-10-11T20:16:11.693Z,7.65
2022-10-11T20:18:16.346Z,7.93
2022-10-11T20:20:22.381Z,9.18
2022-10-11T20:22:27.611Z,8.50
2022-10-11T20:24:33.630Z,7.80
2022-10-11T20:26:36.317Z,7.65
2022-10-11T20:28:41.406Z,7.97
2022-10-11T20:30:43.726Z,7.18
2022-10-11T20:32:46.043Z,6.72
2022-10-11T20:34:48.337Z,7.45
2022-10-11T20:36:53.155Z,6.85
2022-10-11T20:38:56.283Z,6.80
2022-10-11T20:40:58.776Z,6.50
2022-10-11T20:43:01.006Z,5.38
2022-10-11T20:45:03.558Z,6.30
2022-10-11T20:47:05.728Z,6.65
2022-10-11T20:49:10.449Z,5.53
2022-10-11T20:53:35.110Z,5.75
2022-10-11T20:55:37.380Z,5.30
2022-10-11T20:57:39.590Z,5.35
2022-10-11T20:59:41.906Z,5.00
2022-10-11T21:01:44.161Z,5.88
2022-10-11T21:03:46.841Z,5.47
2022-10-11T21:05:56.935Z,4.90
2022-10-11T21:07:59.237Z,4.88
2022-10-11T21:10:04.325Z,5.15
2022-10-11T21:12:06.941Z,4.78
2022-10-11T21:14:09.343Z,4.55
2022-10-11T21:16:14.612Z,4.95
2022-10-11T21:18:16.958Z,4.55
2022-10-11T21:20:24.492Z,4.78
2022-10-11T21:22:27.134Z,5.15
2022-10-11T21:24:30.172Z,4.82
2022-10-11T21:26:35.875Z,4.15
2022-10-11T21:28:38.570Z,4.72
2022-10-11T21:30:43.013Z,4.40
2022-10-11T21:32:48.095Z,3.00
2022-10-11T21:34:53.695Z,2.78
2022-10-11T21:36:56.092Z,2.72
2022-10-11T21:38:58.727Z,3.55
2022-10-11T21:41:02.861Z,4.15
2022-10-11T21:43:07.749Z,4.57
2022-10-11T21:45:10.001Z,5.00
2022-10-11T21:47:12.526Z,4.75
2022-10-11T21:49:14.838Z,4.65
2022-10-11T21:51:21.802Z,4.50
2022-10-11T21:53:24.215Z,4.95
2022-10-11T21:55:27.985Z,4.57
2022-10-11T21:57:30.253Z,4.35
2022-10-11T21:59:35.173Z,4.10
2022-10-11T22:01:37.610Z,4.20
2022-10-11T22:03:39.850Z,3.85
2022-10-11T22:05:44.441Z,3.97
2022-10-11T22:07:46.800Z,3.92
2022-10-11T22:09:49.216Z,3.88
2022-10-11T22:11:51.548Z,3.90
2022-10-11T22:13:53.846Z,3.78
2022-10-11T22:16:03.143Z,3.90
2022-10-11T22:18:06.502Z,3.95
2022-10-11T22:20:09.714Z,3.78
2022-10-11T22:22:17.607Z,4.13
2022-10-11T22:24:19.883Z,3.92
2022-10-11T22:26:25.084Z,3.67
2022-10-11T22:28:27.436Z,3.95
2022-10-11T22:30:29.891Z,4.10
2022-10-11T22:32:37.739Z,4.00
2022-10-11T22:34:40.167Z,4.40
2022-10-11T22:36:45.544Z,4.05
2022-10-11T22:38:47.924Z,4.47
2022-10-11T22:40:50.252Z,4.10
2022-10-11T22:42:52.536Z,3.85
2022-10-11T22:44:54.876Z,3.45
2022-10-11T22:46:57.195Z,3.50
2022-10-11T22:49:02.251Z,3.45
2022-10-11T22:51:04.643Z,3.50
2022-10-11T22:53:07.459Z,3.55
2022-10-11T22:55:09.956Z,3.88
2022-10-11T22:57:12.195Z,3.47
2022-10-11T22:59:17.330Z,3.60
2022-10-11T23:01:19.589Z,3.28
2022-10-11T23:03:26.556Z,3.45
2022-10-11T23:05:31.459Z,3.80
2022-10-11T23:07:36.451Z,4.00
2022-10-11T23:09:38.903Z,3.58
2022-10-11T23:11:41.233Z,3.85
2022-10-11T23:13:43.643Z,3.75
2022-10-11T23:15:46.104Z,4.13
2022-10-11T23:17:48.410Z,3.55
2022-10-11T23:19:50.734Z,3.75
2022-10-11T23:21:55.571Z,3.90
2022-10-11T23:23:57.783Z,3.00
2022-10-11T23:26:06.013Z,4.03
2022-10-11T23:28:10.216Z,3.63
2022-10-11T23:30:13.813Z,3.55
2022-10-11T23:32:16.128Z,4.23
2022-10-11T23:34:18.398Z,3.90
2022-10-11T23:36:22.380Z,4.22
2022-10-11T23:38:27.309Z,3.42
2022-10-11T23:40:29.596Z,3.30
2022-10-11T23:42:31.941Z,3.90
2022-10-11T23:44:34.187Z,4.43
2022-10-11T23:46:36.447Z,4.10
2022-10-11T23:48:38.885Z,3.05
2022-10-11T23:50:42.109Z,3.42
2022-10-11T23:52:44.396Z,3.40
2022-10-11T23:54:49.299Z,4.03
2022-10-11T23:56:51.511Z,3.05
2022-10-11T23:58:53.862Z,3.50
